createdAt,value
2023-03-15T00:01:54.914Z,3.80
2023-03-15T00:04:22.295Z,3.70
2023-03-15T00:06:49.862Z,3.70
2023-03-15T00:09:18.117Z,3.60
2023-03-15T00:11:45.436Z,3.60
2023-03-15T00:14:12.790Z,3.60
2023-03-15T00:16:40.192Z,3.50
2023-03-15T00:19:07.507Z,3.50
2023-03-15T00:21:35.692Z,3.50
2023-03-15T00:24:03.586Z,3.60
2023-03-15T00:26:30.998Z,3.50
2023-03-15T00:28:58.291Z,3.60
2023-03-15T00:31:26.592Z,3.50
2023-03-15T00:33:54.835Z,3.60
2023-03-15T00:36:23.907Z,3.60
2023-03-15T00:38:53.821Z,3.60
2023-03-15T00:41:22.333Z,3.60
2023-03-15T00:43:50.917Z,3.70
2023-03-15T00:46:20.494Z,3.60
2023-03-15T00:48:51.792Z,3.60
2023-03-15T00:51:24.108Z,3.60
2023-03-15T00:53:53.577Z,3.60
2023-03-15T00:56:24.105Z,3.60
2023-03-15T00:58:55.112Z,3.50
2023-03-15T01:01:29.658Z,3.50
2023-03-15T01:03:57.624Z,3.40
2023-03-15T01:06:27.398Z,3.40
2023-03-15T01:08:57.350Z,3.40
2023-03-15T01:11:27.416Z,3.30
2023-03-15T01:13:59.812Z,3.20
2023-03-15T01:16:27.974Z,3.20
2023-03-15T01:18:55.997Z,3.20
2023-03-15T01:21:25.002Z,3.20
2023-03-15T01:23:53.225Z,3.30
2023-03-15T01:26:20.707Z,3.20
2023-03-15T01:28:49.165Z,3.20
2023-03-15T01:31:28.120Z,3.20
2023-03-15T01:33:55.805Z,3.20
2023-03-15T01:36:23.971Z,3.20
2023-03-15T01:38:51.397Z,3.20
2023-03-15T01:41:19.847Z,3.20
2023-03-15T01:43:49.823Z,3.20
2023-03-15T01:46:35.065Z,3.10
2023-03-15T01:49:12.868Z,3.10
2023-03-15T01:51:59.572Z,3.20
2023-03-15T01:54:35.342Z,3.10
2023-03-15T01:57:06.272Z,3.10
2023-03-15T01:59:59.195Z,3.10
2023-03-15T02:02:27.497Z,3.10
2023-03-15T02:05:10.289Z,3.10
2023-03-15T02:07:41.241Z,3.10
2023-03-15T02:10:11.844Z,3.10
2023-03-15T02:12:50.473Z,3.10
2023-03-15T02:15:19.186Z,3.10
2023-03-15T02:17:48.543Z,3.10
2023-03-15T02:20:43.959Z,3.10
2023-03-15T02:23:17.834Z,3.00
2023-03-15T02:26:09.843Z,3.00
2023-03-15T02:28:37.705Z,3.00
2023-03-15T02:31:07.791Z,3.00
2023-03-15T02:33:56.183Z,3.00
2023-03-15T02:36:32.325Z,3.00
2023-03-15T02:39:00.113Z,3.00
2023-03-15T02:41:38.111Z,3.00
2023-03-15T02:44:19.270Z,3.00
2023-03-15T02:46:50.369Z,3.00
2023-03-15T02:49:18.002Z,3.00
2023-03-15T02:51:45.258Z,3.00
2023-03-15T02:54:12.614Z,2.90
2023-03-15T02:56:40.142Z,3.00
2023-03-15T02:59:07.537Z,2.90
2023-03-15T03:01:37.506Z,2.90
2023-03-15T03:04:05.513Z,2.80
2023-03-15T03:06:35.628Z,2.80
2023-03-15T03:09:03.465Z,2.80
2023-03-15T03:11:31.692Z,2.70
2023-03-15T03:13:59.903Z,2.70
2023-03-15T03:16:27.370Z,2.70
2023-03-15T03:18:55.148Z,2.70
2023-03-15T03:21:22.487Z,2.60
2023-03-15T03:23:49.756Z,2.60
2023-03-15T03:26:19.063Z,2.60
2023-03-15T03:28:48.128Z,2.60
2023-03-15T03:31:21.553Z,2.60
2023-03-15T03:33:48.905Z,2.70
2023-03-15T03:36:16.471Z,2.60
2023-03-15T03:38:54.009Z,2.60
2023-03-15T03:41:21.790Z,2.50
2023-03-15T03:43:49.247Z,2.60
2023-03-15T03:46:16.766Z,2.50
2023-03-15T03:48:44.131Z,2.40
2023-03-15T03:51:11.612Z,2.50
2023-03-15T03:53:38.933Z,2.50
2023-03-15T03:56:07.812Z,2.50
2023-03-15T03:58:35.536Z,2.50
2023-03-15T04:01:04.512Z,2.40
2023-03-15T04:03:32.331Z,2.40
2023-03-15T04:06:02.019Z,2.40
2023-03-15T04:08:29.456Z,2.40
2023-03-15T04:10:58.392Z,2.40
2023-03-15T04:13:26.215Z,2.40
2023-03-15T04:15:58.037Z,2.30
2023-03-15T04:18:26.330Z,2.40
2023-03-15T04:20:54.959Z,2.40
2023-03-15T04:23:23.834Z,2.40
2023-03-15T04:25:58.447Z,2.40
2023-03-15T04:28:26.255Z,2.40
2023-03-15T04:30:59.243Z,2.40
2023-03-15T04:33:26.753Z,2.40
2023-03-15T04:35:54.782Z,2.30
2023-03-15T04:38:27.140Z,2.40
2023-03-15T04:40:55.597Z,2.40
2023-03-15T04:43:24.969Z,2.40
2023-03-15T04:45:52.247Z,2.40
2023-03-15T04:48:19.637Z,2.40
2023-03-15T04:50:47.612Z,2.40
2023-03-15T04:53:15.131Z,2.40
2023-03-15T04:55:42.694Z,2.30
2023-03-15T04:58:10.637Z,2.30
2023-03-15T05:00:38.241Z,2.30
2023-03-15T05:03:08.706Z,2.20
2023-03-15T05:05:36.617Z,2.20
2023-03-15T05:08:04.006Z,2.20
2023-03-15T05:10:31.844Z,2.20
2023-03-15T05:13:01.448Z,2.20
2023-03-15T05:15:29.162Z,2.20
2023-03-15T05:17:56.565Z,2.20
2023-03-15T05:20:24.124Z,2.20
2023-03-15T05:22:53.464Z,2.30
2023-03-15T05:25:21.208Z,2.30
2023-03-15T05:27:49.095Z,2.30
2023-03-15T05:30:16.723Z,2.30
2023-03-15T05:32:45.129Z,2.20
2023-03-15T05:35:13.765Z,2.20
2023-03-15T05:37:43.757Z,2.30
2023-03-15T05:40:11.838Z,2.30
2023-03-15T05:42:39.206Z,2.30
2023-03-15T05:45:07.893Z,2.30
2023-03-15T05:47:35.293Z,2.30
2023-03-15T05:50:02.820Z,2.30
2023-03-15T05:52:30.537Z,2.40
2023-03-15T05:54:57.929Z,2.40
2023-03-15T05:57:25.277Z,2.40
2023-03-15T05:59:54.107Z,2.40
2023-03-15T06:02:22.526Z,2.40
2023-03-15T06:04:49.856Z,2.40
2023-03-15T06:07:17.423Z,2.40
2023-03-15T06:09:45.018Z,2.40
2023-03-15T06:12:12.468Z,2.40
2023-03-15T06:14:39.813Z,2.40
2023-03-15T06:17:07.387Z,2.40
2023-03-15T06:19:38.014Z,2.50
2023-03-15T06:22:05.456Z,2.40
2023-03-15T06:24:32.849Z,2.40
2023-03-15T06:27:00.566Z,2.50
2023-03-15T06:29:28.477Z,2.50
2023-03-15T06:31:56.426Z,2.50
2023-03-15T06:34:23.778Z,2.50
2023-03-15T06:36:52.865Z,2.60
2023-03-15T06:39:23.115Z,2.60
2023-03-15T06:41:54.124Z,2.70
2023-03-15T06:44:21.838Z,2.70
2023-03-15T06:46:49.649Z,2.80
2023-03-15T06:49:16.997Z,2.80
2023-03-15T06:51:45.693Z,2.80
2023-03-15T06:54:12.963Z,2.80
2023-03-15T06:56:40.607Z,2.90
2023-03-15T06:59:07.962Z,2.90
2023-03-15T07:01:35.453Z,3.00
2023-03-15T07:04:02.862Z,3.00
2023-03-15T07:06:30.236Z,3.10
2023-03-15T07:08:58.239Z,3.10
2023-03-15T07:11:25.871Z,3.10
2023-03-15T07:13:53.179Z,3.20
2023-03-15T07:16:20.702Z,3.20
2023-03-15T07:18:48.149Z,3.20
2023-03-15T07:21:15.737Z,3.30
2023-03-15T07:23:43.314Z,3.30
2023-03-15T07:26:10.714Z,3.40
2023-03-15T07:28:38.248Z,3.40
2023-03-15T07:31:06.881Z,3.50
2023-03-15T07:33:36.873Z,3.50
2023-03-15T07:36:06.255Z,3.50
2023-03-15T07:38:34.579Z,3.60
2023-03-15T07:41:07.348Z,3.60
2023-03-15T07:43:35.240Z,3.70
2023-03-15T07:46:02.605Z,3.70
2023-03-15T07:48:30.169Z,3.60
2023-03-15T07:50:58.262Z,3.70
2023-03-15T07:53:25.789Z,3.80
2023-03-15T07:55:53.235Z,3.80
2023-03-15T07:58:20.675Z,3.80
2023-03-15T08:00:48.692Z,3.90
2023-03-15T08:03:16.176Z,3.90
2023-03-15T08:05:43.559Z,3.90
2023-03-15T08:08:11.981Z,4.00
2023-03-15T08:10:43.641Z,4.10
2023-03-15T08:13:11.701Z,4.20
2023-03-15T08:15:40.100Z,4.30
2023-03-15T08:18:07.546Z,4.40
2023-03-15T08:20:35.182Z,4.50
2023-03-15T08:23:02.562Z,4.60
2023-03-15T08:25:30.417Z,4.60
2023-03-15T08:28:00.990Z,4.70
2023-03-15T08:30:28.527Z,5.00
2023-03-15T08:32:55.795Z,5.20
2023-03-15T08:35:23.266Z,5.30
2023-03-15T08:37:52.615Z,5.30
2023-03-15T08:40:24.261Z,5.30
2023-03-15T08:42:52.536Z,5.40
2023-03-15T08:45:20.251Z,5.60
2023-03-15T08:47:47.884Z,5.50
2023-03-15T08:50:16.744Z,5.30
2023-03-15T08:52:44.512Z,5.40
2023-03-15T08:55:14.746Z,5.50
2023-03-15T08:57:43.242Z,5.60
2023-03-15T09:00:21.795Z,5.70
2023-03-15T09:02:52.296Z,5.80
2023-03-15T09:05:21.654Z,5.80
2023-03-15T09:07:49.450Z,6.00
2023-03-15T09:10:18.125Z,5.90
2023-03-15T09:12:47.948Z,6.00
2023-03-15T09:15:16.746Z,6.20
2023-03-15T09:17:44.185Z,6.80
2023-03-15T09:20:17.369Z,6.90
2023-03-15T09:22:49.867Z,6.70
2023-03-15T09:25:17.451Z,6.50
2023-03-15T09:27:44.718Z,6.20
2023-03-15T09:30:12.645Z,6.20
2023-03-15T09:32:40.128Z,6.20
2023-03-15T09:35:09.496Z,6.20
2023-03-15T09:37:36.950Z,6.20
2023-03-15T09:40:05.076Z,6.20
2023-03-15T09:42:44.909Z,6.20
2023-03-15T09:45:49.592Z,6.00
2023-03-15T09:48:32.825Z,5.90
2023-03-15T09:51:14.285Z,6.00
2023-03-15T09:54:01.605Z,6.00
2023-03-15T09:56:40.456Z,6.20
2023-03-15T09:59:08.212Z,6.10
2023-03-15T10:01:38.580Z,6.30
2023-03-15T10:04:25.342Z,6.40
2023-03-15T10:06:56.901Z,6.60
2023-03-15T10:09:27.074Z,6.50
2023-03-15T10:12:19.770Z,6.30
2023-03-15T10:15:21.111Z,6.30
2023-03-15T10:17:53.276Z,6.20
2023-03-15T10:20:25.474Z,6.30
2023-03-15T10:23:18.324Z,6.40
2023-03-15T10:25:47.519Z,6.40
2023-03-15T10:28:28.070Z,6.40
2023-03-15T10:31:01.070Z,6.40
2023-03-15T10:33:39.759Z,6.50
2023-03-15T10:36:16.436Z,6.60
2023-03-15T10:38:45.415Z,6.80
2023-03-15T10:41:28.999Z,7.00
2023-03-15T10:44:27.351Z,7.20
2023-03-15T10:47:07.103Z,7.40
2023-03-15T10:49:41.603Z,7.70
2023-03-15T10:52:26.331Z,7.60
2023-03-15T10:55:03.968Z,7.50
2023-03-15T10:57:39.386Z,7.50
2023-03-15T11:00:27.119Z,7.30
2023-03-15T11:03:21.175Z,7.10
2023-03-15T11:05:54.119Z,6.90
2023-03-15T11:08:43.028Z,7.00
2023-03-15T11:11:11.440Z,7.40
2023-03-15T11:13:41.024Z,7.90
2023-03-15T11:16:14.237Z,8.00
2023-03-15T11:18:49.883Z,8.10
2023-03-15T11:21:19.470Z,8.00
2023-03-15T11:23:49.260Z,8.50
2023-03-15T11:26:32.224Z,9.20
2023-03-15T11:29:05.504Z,9.30
2023-03-15T11:31:35.483Z,9.30
2023-03-15T11:34:39.659Z,8.80
2023-03-15T11:37:21.789Z,8.90
2023-03-15T11:40:11.140Z,9.20
2023-03-15T11:42:58.149Z,9.50
2023-03-15T11:45:41.908Z,10.20
2023-03-15T11:48:34.333Z,9.90
2023-03-15T11:51:02.701Z,9.70
2023-03-15T11:54:06.337Z,9.70
2023-03-15T11:57:03.378Z,9.50
2023-03-15T11:59:38.956Z,9.60
2023-03-15T12:02:15.150Z,9.40
2023-03-15T12:04:45.609Z,9.20
2023-03-15T12:07:19.109Z,8.90
2023-03-15T12:10:05.331Z,9.00
2023-03-15T12:12:32.651Z,9.10
2023-03-15T12:15:12.006Z,8.60
2023-03-15T12:18:06.685Z,8.30
2023-03-15T12:20:38.349Z,8.30
2023-03-15T12:23:18.011Z,8.60
2023-03-15T12:25:55.315Z,8.60
2023-03-15T12:28:41.665Z,8.80
2023-03-15T12:31:15.469Z,8.60
2023-03-15T12:33:49.460Z,8.40
2023-03-15T12:36:40.072Z,8.40
2023-03-15T12:39:21.839Z,8.40
2023-03-15T12:41:52.172Z,8.00
2023-03-15T12:44:33.865Z,7.90
2023-03-15T12:47:03.568Z,8.30
2023-03-15T12:49:37.243Z,9.00
2023-03-15T12:52:25.010Z,9.30
2023-03-15T12:55:16.006Z,9.70
2023-03-15T12:57:54.838Z,9.80
2023-03-15T13:00:26.124Z,9.60
2023-03-15T13:03:17.047Z,10.00
2023-03-15T13:06:03.269Z,10.20
2023-03-15T13:08:48.629Z,9.80
2023-03-15T13:11:41.715Z,9.40
2023-03-15T13:14:18.458Z,9.20
2023-03-15T13:17:09.224Z,9.50
2023-03-15T13:19:51.441Z,9.30
2023-03-15T13:22:32.242Z,8.90
2023-03-15T13:25:18.193Z,9.20
2023-03-15T13:27:54.360Z,8.70
2023-03-15T13:30:39.171Z,8.70
2023-03-15T13:33:09.515Z,9.10
2023-03-15T13:35:51.076Z,9.00
2023-03-15T13:38:28.373Z,9.00
2023-03-15T13:40:57.527Z,9.40
2023-03-15T13:43:32.109Z,9.40
2023-03-15T13:46:00.109Z,9.40
2023-03-15T13:48:42.405Z,9.30
2023-03-15T13:51:33.449Z,9.60
2023-03-15T13:54:25.749Z,10.20
2023-03-15T13:57:16.745Z,10.40
2023-03-15T14:00:11.151Z,10.60
2023-03-15T14:03:07.899Z,10.40
2023-03-15T14:05:47.234Z,10.60
2023-03-15T14:08:36.843Z,10.90
2023-03-15T14:11:18.410Z,11.30
2023-03-15T14:13:53.039Z,11.70
2023-03-15T14:16:57.357Z,11.60
2023-03-15T14:19:32.765Z,11.30
2023-03-15T14:22:19.086Z,11.40
2023-03-15T14:24:55.886Z,12.10
2023-03-15T14:27:33.721Z,12.40
2023-03-15T14:30:03.086Z,12.60
2023-03-15T14:32:34.198Z,12.50
2023-03-15T14:35:01.998Z,12.20
2023-03-15T14:37:40.922Z,12.30
2023-03-15T14:40:28.558Z,11.80
2023-03-15T14:42:56.209Z,11.30
2023-03-15T14:45:23.850Z,11.00
2023-03-15T14:47:59.498Z,11.00
2023-03-15T14:50:31.160Z,11.40
2023-03-15T14:52:59.543Z,11.80
2023-03-15T14:55:35.744Z,11.90
2023-03-15T14:58:04.502Z,12.20
2023-03-15T15:00:33.973Z,11.90
2023-03-15T15:03:01.861Z,11.20
2023-03-15T15:05:33.171Z,10.60
2023-03-15T15:08:15.603Z,10.30
2023-03-15T15:10:45.998Z,10.30
2023-03-15T15:13:25.778Z,10.90
2023-03-15T15:15:56.331Z,11.40
2023-03-15T15:18:29.691Z,11.70
2023-03-15T15:21:00.257Z,11.60
2023-03-15T15:23:33.670Z,11.50
2023-03-15T15:26:04.961Z,11.60
2023-03-15T15:28:37.261Z,11.80
2023-03-15T15:31:08.025Z,11.40
2023-03-15T15:33:42.791Z,11.30
2023-03-15T15:36:36.314Z,10.70
2023-03-15T15:39:07.784Z,10.10
2023-03-15T15:41:37.015Z,10.00
2023-03-15T15:44:06.913Z,9.60
2023-03-15T15:46:39.564Z,9.10
2023-03-15T15:49:11.378Z,8.70
2023-03-15T15:51:46.167Z,8.60
2023-03-15T15:54:23.030Z,8.90
2023-03-15T15:56:53.877Z,9.10
2023-03-15T15:59:28.080Z,9.30
2023-03-15T16:02:02.233Z,9.20
2023-03-15T16:04:31.051Z,8.70
2023-03-15T16:07:02.222Z,8.50
2023-03-15T16:09:32.180Z,8.40
2023-03-15T16:11:59.564Z,8.30
2023-03-15T16:14:27.294Z,8.10
2023-03-15T16:16:59.325Z,7.90
2023-03-15T16:19:26.619Z,7.70
2023-03-15T16:21:54.841Z,7.50
2023-03-15T16:24:29.330Z,7.30
2023-03-15T16:27:01.631Z,7.20
2023-03-15T16:29:50.487Z,7.10
2023-03-15T16:32:36.887Z,7.00
2023-03-15T16:35:16.392Z,6.90
2023-03-15T16:37:44.643Z,6.60
2023-03-15T16:40:31.489Z,6.50
2023-03-15T16:42:59.271Z,6.20
2023-03-15T16:45:27.868Z,6.10
2023-03-15T16:47:56.954Z,6.00
2023-03-15T16:50:24.883Z,5.90
2023-03-15T16:52:58.501Z,5.80
2023-03-15T16:55:33.180Z,5.70
2023-03-15T16:58:03.623Z,5.60
2023-03-15T17:00:32.170Z,5.60
2023-03-15T17:03:02.904Z,5.40
2023-03-15T17:05:33.786Z,5.40
2023-03-15T17:08:01.825Z,5.30
2023-03-15T17:10:32.166Z,5.30
2023-03-15T17:13:02.258Z,5.20
2023-03-15T17:15:31.078Z,5.20
2023-03-15T17:17:58.660Z,5.10
2023-03-15T17:20:28.680Z,5.00
2023-03-15T17:23:05.062Z,5.00
2023-03-15T17:25:33.512Z,4.90
2023-03-15T17:28:01.403Z,4.80
2023-03-15T17:30:32.120Z,4.80
2023-03-15T17:32:59.865Z,4.80
2023-03-15T17:35:34.272Z,4.70
2023-03-15T17:38:04.712Z,4.70
2023-03-15T17:40:35.661Z,4.50
2023-03-15T17:43:04.904Z,4.50
2023-03-15T17:45:36.638Z,4.40
2023-03-15T17:48:04.824Z,4.30
2023-03-15T17:50:36.979Z,4.30
2023-03-15T17:53:04.247Z,4.20
2023-03-15T17:55:35.559Z,4.10
2023-03-15T17:58:04.335Z,4.10
2023-03-15T18:00:33.050Z,4.10
2023-03-15T18:03:01.714Z,4.10
2023-03-15T18:05:30.135Z,4.00
2023-03-15T18:07:59.314Z,4.00
2023-03-15T18:10:33.748Z,4.00
2023-03-15T18:13:01.888Z,3.90
2023-03-15T18:15:29.636Z,3.90
2023-03-15T18:17:57.224Z,3.80
2023-03-15T18:20:24.595Z,3.80
2023-03-15T18:22:53.050Z,3.70
2023-03-15T18:25:23.599Z,3.70
2023-03-15T18:27:51.677Z,3.70
2023-03-15T18:30:22.015Z,3.70
2023-03-15T18:32:51.066Z,3.60
2023-03-15T18:35:24.164Z,3.60
2023-03-15T18:37:55.002Z,3.50
2023-03-15T18:40:23.875Z,3.50
2023-03-15T18:42:52.346Z,3.50
2023-03-15T18:45:22.467Z,3.40
2023-03-15T18:47:50.540Z,3.40
2023-03-15T18:50:19.465Z,3.30
2023-03-15T18:52:47.467Z,3.30
2023-03-15T18:55:17.158Z,3.30
2023-03-15T18:57:46.521Z,3.30
2023-03-15T19:00:24.147Z,3.30
2023-03-15T19:02:52.475Z,3.30
2023-03-15T19:05:20.256Z,3.30
2023-03-15T19:07:48.497Z,3.20
2023-03-15T19:10:19.329Z,3.20
2023-03-15T19:12:47.591Z,3.10
2023-03-15T19:15:17.858Z,3.10
2023-03-15T19:17:50.106Z,3.00
2023-03-15T19:20:21.815Z,3.00
2023-03-15T19:22:51.051Z,3.00
2023-03-15T19:25:18.934Z,2.90
2023-03-15T19:27:46.409Z,2.90
2023-03-15T19:30:18.325Z,2.80
2023-03-15T19:32:48.333Z,2.80
2023-03-15T19:35:17.980Z,2.70
2023-03-15T19:37:45.601Z,2.70
2023-03-15T19:40:16.931Z,2.60
2023-03-15T19:42:44.654Z,2.60
2023-03-15T19:45:13.246Z,2.50
2023-03-15T19:47:41.092Z,2.50
2023-03-15T19:50:11.756Z,2.50
2023-03-15T19:52:46.116Z,2.40
2023-03-15T19:55:16.647Z,2.40
2023-03-15T19:57:45.078Z,2.40
2023-03-15T20:00:19.720Z,2.30
2023-03-15T20:02:47.955Z,2.30
2023-03-15T20:05:17.737Z,2.30
2023-03-15T20:07:46.516Z,2.30
2023-03-15T20:10:14.863Z,2.30
2023-03-15T20:12:42.997Z,2.30
2023-03-15T20:15:15.208Z,2.20
2023-03-15T20:17:42.784Z,2.30
2023-03-15T20:20:11.572Z,2.30
2023-03-15T20:22:42.243Z,2.30
2023-03-15T20:25:11.624Z,2.30
2023-03-15T20:27:39.810Z,2.30
2023-03-15T20:30:10.601Z,2.30
2023-03-15T20:32:38.524Z,2.30
2023-03-15T20:35:09.935Z,2.30
2023-03-15T20:37:40.704Z,2.30
2023-03-15T20:40:11.672Z,2.30
2023-03-15T20:42:39.545Z,2.20
2023-03-15T20:45:08.391Z,2.20
2023-03-15T20:47:36.738Z,2.20
2023-03-15T20:50:05.395Z,2.20
2023-03-15T20:52:33.219Z,2.10
2023-03-15T20:55:01.708Z,2.10
2023-03-15T20:57:29.055Z,2.00
2023-03-15T20:59:56.548Z,2.00
2023-03-15T21:02:23.859Z,2.00
2023-03-15T21:04:52.165Z,2.00
2023-03-15T21:07:20.954Z,2.00
2023-03-15T21:09:48.700Z,2.00
2023-03-15T21:12:16.092Z,1.90
2023-03-15T21:14:43.904Z,1.90
2023-03-15T21:17:11.553Z,2.00
2023-03-15T21:19:39.207Z,2.00
2023-03-15T21:22:07.737Z,2.00
2023-03-15T21:24:49.407Z,2.10
2023-03-15T21:27:21.391Z,2.10
2023-03-15T21:29:48.923Z,2.10
2023-03-15T21:32:16.241Z,2.10
2023-03-15T21:34:43.859Z,2.10
2023-03-15T21:37:11.395Z,2.10
2023-03-15T21:39:38.973Z,2.10
2023-03-15T21:42:06.464Z,2.10
2023-03-15T21:44:34.838Z,2.10
2023-03-15T21:47:04.803Z,2.10
2023-03-15T21:49:37.234Z,2.10
2023-03-15T21:52:04.486Z,2.00
2023-03-15T21:54:31.723Z,2.00
2023-03-15T21:56:59.575Z,2.00
2023-03-15T21:59:29.585Z,2.00
2023-03-15T22:01:57.614Z,2.00
2023-03-15T22:04:25.439Z,1.90
2023-03-15T22:06:53.254Z,1.90
2023-03-15T22:09:23.517Z,1.90
2023-03-15T22:11:50.973Z,1.80
2023-03-15T22:14:18.657Z,1.80
2023-03-15T22:16:46.658Z,1.70
2023-03-15T22:19:14.804Z,1.70
2023-03-15T22:21:42.564Z,1.80
2023-03-15T22:24:10.362Z,1.70
2023-03-15T22:26:39.135Z,1.70
2023-03-15T22:29:06.580Z,1.70
2023-03-15T22:31:34.140Z,1.70
2023-03-15T22:34:03.072Z,1.80
2023-03-15T22:36:35.494Z,1.70
2023-03-15T22:39:03.614Z,1.70
2023-03-15T22:41:30.946Z,1.60
2023-03-15T22:43:58.411Z,1.60
2023-03-15T22:46:26.350Z,1.50
2023-03-15T22:48:54.753Z,1.40
2023-03-15T22:51:22.216Z,1.40
2023-03-15T22:53:49.984Z,1.30
2023-03-15T22:56:17.445Z,1.30
2023-03-15T22:58:44.695Z,1.20
2023-03-15T23:01:12.025Z,1.20
2023-03-15T23:03:39.701Z,1.10
2023-03-15T23:06:07.057Z,1.10
2023-03-15T23:08:34.442Z,1.10
2023-03-15T23:11:01.820Z,1.10
2023-03-15T23:13:30.043Z,1.10
2023-03-15T23:15:57.620Z,1.00
2023-03-15T23:18:24.994Z,1.00
2023-03-15T23:20:52.292Z,1.00
2023-03-15T23:23:19.683Z,0.90
2023-03-15T23:25:47.379Z,0.90
2023-03-15T23:28:20.741Z,0.90
2023-03-15T23:30:48.542Z,1.00
2023-03-15T23:33:16.118Z,0.90
2023-03-15T23:35:43.396Z,0.90
2023-03-15T23:38:10.944Z,0.80
2023-03-15T23:40:38.512Z,0.80
2023-03-15T23:43:06.219Z,0.80
2023-03-15T23:45:34.591Z,0.80
2023-03-15T23:48:02.949Z,0.70
2023-03-15T23:50:30.950Z,0.70
2023-03-15T23:52:58.600Z,0.70
2023-03-15T23:55:26.325Z,0.60
2023-03-15T23:57:53.947Z,0.60
